Time;durP1;ratioP1;P1;durP2;ratioP2;P2;SDS_P1;SDS_P2;PMS_P1;PMS_P2;Temp;Humidity;BMP_temperature;BMP_pressure;BME280_temperature;BME280_humidity;BME280_pressure;Samples;Min_cycle;Max_cycle;Signal;HPM_P1;HPM_P2
2023/05/20 00:02:18;;;;;;;2.10;0.97;;;22.20;65.80;;;;;;5017049;28;20871;-83
2023/05/20 00:04:46;;;;;;;1.20;0.90;;;22.30;66.00;;;;;;5020683;28;20450;-82
2023/05/20 00:07:16;;;;;;;1.10;1.00;;;22.20;65.90;;;;;;5022060;28;20477;-83
2023/05/20 00:09:42;;;;;;;1.43;0.87;;;22.20;65.90;;;;;;5025580;28;20493;-82
2023/05/20 00:12:09;;;;;;;1.00;0.80;;;22.20;65.90;;;;;;5024216;28;20455;-83
2023/05/20 00:14:36;;;;;;;1.67;0.90;;;22.20;65.90;;;;;;5023761;28;21013;-83
2023/05/20 00:17:02;;;;;;;1.20;0.90;;;22.20;66.00;;;;;;5020570;28;20481;-83
2023/05/20 00:19:29;;;;;;;1.93;0.90;;;22.20;66.00;;;;;;5025285;28;20486;-83
2023/05/20 00:21:57;;;;;;;1.10;0.80;;;22.20;66.00;;;;;;5024678;28;20459;-84
2023/05/20 00:24:25;;;;;;;1.40;1.20;;;22.20;66.00;;;;;;5027905;28;20467;-83
2023/05/20 00:26:52;;;;;;;1.20;1.03;;;22.20;66.00;;;;;;5028503;28;20974;-84
2023/05/20 00:29:18;;;;;;;1.20;0.93;;;22.20;66.00;;;;;;5029012;28;20962;-84
2023/05/20 00:31:45;;;;;;;1.00;0.80;;;22.20;66.10;;;;;;5024063;28;20458;-84
2023/05/20 00:34:12;;;;;;;1.10;0.90;;;22.20;66.00;;;;;;5026065;28;20467;-83
2023/05/20 00:36:38;;;;;;;1.17;0.90;;;22.20;66.30;;;;;;5024967;28;20462;-83
2023/05/20 00:39:06;;;;;;;1.17;1.07;;;22.20;66.10;;;;;;5020831;28;20534;-84
2023/05/20 00:41:34;;;;;;;1.00;0.90;;;22.20;66.20;;;;;;5023596;28;20455;-84
2023/05/20 00:44:00;;;;;;;1.90;1.10;;;22.20;66.20;;;;;;5026355;28;20467;-84
2023/05/20 00:46:28;;;;;;;1.10;1.00;;;22.20;66.30;;;;;;5015976;28;20459;-84
2023/05/20 00:48:59;;;;;;;1.67;0.93;;;22.10;66.00;;;;;;5019861;28;20541;-83
2023/05/20 00:51:26;;;;;;;1.17;0.93;;;22.10;66.20;;;;;;5020918;28;20459;-84
2023/05/20 00:53:54;;;;;;;3.10;1.10;;;22.10;66.10;;;;;;5019401;28;20938;-84
2023/05/20 00:56:23;;;;;;;1.13;1.00;;;22.10;66.20;;;;;;5013245;28;20477;-84
2023/05/20 00:58:50;;;;;;;1.50;0.97;;;22.10;66.20;;;;;;5024667;28;20454;-84
2023/05/20 01:01:17;;;;;;;1.38;1.10;;;22.10;66.20;;;;;;5024261;28;20484;-84
2023/05/20 01:03:44;;;;;;;1.30;0.93;;;22.10;66.30;;;;;;5017176;28;20196;-84
2023/05/20 01:06:10;;;;;;;1.00;0.80;;;22.10;66.20;;;;;;5024230;28;20466;-84
2023/05/20 01:08:37;;;;;;;1.20;1.10;;;22.10;66.30;;;;;;5021187;28;20462;-84
2023/05/20 01:11:07;;;;;;;0.90;0.70;;;22.10;66.30;;;;;;5022559;28;20475;-83
2023/05/20 01:13:42;;;;;;;1.20;0.90;;;22.10;66.30;;;;;;5020615;28;20462;-84
2023/05/20 01:16:10;;;;;;;1.50;1.10;;;22.10;66.30;;;;;;5015660;28;20465;-83
2023/05/20 01:18:42;;;;;;;1.20;1.00;;;22.10;66.30;;;;;;5022410;28;20458;-83
2023/05/20 01:21:11;;;;;;;0.90;0.70;;;22.10;66.30;;;;;;5030238;28;20859;-82
2023/05/20 01:23:40;;;;;;;1.23;0.90;;;22.00;66.30;;;;;;5031850;28;20204;-83
2023/05/20 01:26:08;;;;;;;1.00;0.83;;;22.10;66.30;;;;;;5027732;28;20199;-83
2023/05/20 01:28:37;;;;;;;1.20;0.80;;;22.00;66.30;;;;;;5025622;28;20466;-82
2023/05/20 01:31:06;;;;;;;1.40;1.30;;;22.00;66.30;;;;;;5028787;28;20493;-82
2023/05/20 01:33:37;;;;;;;1.03;0.87;;;22.00;66.30;;;;;;5034506;28;20567;-83
2023/05/20 01:36:05;;;;;;;1.10;0.90;;;22.10;66.40;;;;;;5030819;28;20532;-83
2023/05/20 01:38:32;;;;;;;1.92;1.02;;;22.00;66.40;;;;;;5032551;28;20458;-82
2023/05/20 01:41:04;;;;;;;1.30;0.98;;;22.00;66.40;;;;;;5032626;28;20310;-82
2023/05/20 01:43:31;;;;;;;1.17;0.90;;;22.00;66.40;;;;;;5028874;28;20200;-83
2023/05/20 01:45:58;;;;;;;1.10;0.90;;;22.00;66.50;;;;;;5025941;28;20460;-82
2023/05/20 01:48:25;;;;;;;1.00;0.90;;;22.00;66.40;;;;;;5026555;28;20466;-83
2023/05/20 01:50:51;;;;;;;0.98;0.85;;;22.00;66.50;;;;;;5033485;28;20196;-83
2023/05/20 01:53:18;;;;;;;1.00;0.90;;;22.00;66.50;;;;;;5031301;28;20200;-83
2023/05/20 01:55:45;;;;;;;1.08;0.90;;;22.00;66.50;;;;;;5024642;28;20491;-83
2023/05/20 01:58:13;;;;;;;1.17;0.90;;;22.00;66.50;;;;;;5026596;28;20220;-83
2023/05/20 02:00:40;;;;;;;1.93;1.20;;;22.00;66.50;;;;;;5022553;28;20490;-83
2023/05/20 02:03:06;;;;;;;1.00;0.80;;;22.00;66.60;;;;;;5029434;28;20473;-82
2023/05/20 02:05:33;;;;;;;1.55;1.10;;;21.90;66.40;;;;;;5031742;28;20262;-83
2023/05/20 02:08:00;;;;;;;1.10;1.00;;;21.90;66.60;;;;;;5030774;28;20231;-82
2023/05/20 02:10:26;;;;;;;0.90;0.80;;;22.00;66.50;;;;;;5028107;28;20206;-83
2023/05/20 02:12:53;;;;;;;1.05;0.80;;;21.90;66.50;;;;;;5033636;28;20211;-82
2023/05/20 02:15:21;;;;;;;1.10;0.90;;;21.90;66.50;;;;;;5028031;28;20385;-83
2023/05/20 02:17:48;;;;;;;1.10;0.90;;;21.90;66.60;;;;;;5027463;28;20469;-83
2023/05/20 02:20:15;;;;;;;1.50;1.00;;;21.90;66.60;;;;;;5025102;28;20482;-82
2023/05/20 02:22:41;;;;;;;1.25;1.15;;;21.90;66.60;;;;;;5026745;28;20200;-82
2023/05/20 02:25:09;;;;;;;1.23;0.90;;;21.90;66.60;;;;;;5031521;28;20211;-83
2023/05/20 02:27:36;;;;;;;1.40;0.90;;;21.90;66.70;;;;;;5028193;28;20666;-82
2023/05/20 02:30:02;;;;;;;1.10;0.80;;;21.90;66.60;;;;;;5027601;28;20465;-82
2023/05/20 02:32:32;;;;;;;1.40;1.00;;;21.90;66.60;;;;;;5025757;28;20211;-82
2023/05/20 02:34:59;;;;;;;1.20;0.90;;;21.90;66.60;;;;;;5031555;28;20287;-83
2023/05/20 02:37:25;;;;;;;1.45;0.85;;;21.90;66.70;;;;;;5021463;28;20197;-82
2023/05/20 02:39:52;;;;;;;0.95;0.80;;;21.90;66.80;;;;;;5020714;28;20208;-82
2023/05/20 02:42:19;;;;;;;1.10;0.88;;;21.80;66.60;;;;;;5031824;28;20196;-82
2023/05/20 02:44:46;;;;;;;1.10;0.90;;;21.80;66.70;;;;;;5027592;28;20208;-82
2023/05/20 02:47:14;;;;;;;1.10;0.80;;;21.80;66.70;;;;;;5028871;28;20742;-82
2023/05/20 02:49:42;;;;;;;1.00;0.80;;;21.80;66.70;;;;;;5021820;28;20631;-83
2023/05/20 02:52:09;;;;;;;1.30;0.90;;;21.80;66.70;;;;;;5029159;28;20200;-83
2023/05/20 02:54:35;;;;;;;1.67;1.00;;;21.80;66.80;;;;;;5027153;28;20228;-83
2023/05/20 02:57:02;;;;;;;1.00;0.77;;;21.80;66.70;;;;;;5031144;28;20252;-83
2023/05/20 02:59:29;;;;;;;1.38;1.10;;;21.80;66.80;;;;;;5029238;28;20219;-81
2023/05/20 03:01:56;;;;;;;0.90;0.73;;;21.80;66.80;;;;;;5025686;28;20216;-81
2023/05/20 03:04:24;;;;;;;1.20;1.00;;;21.80;66.80;;;;;;5023670;28;20196;-81
2023/05/20 03:06:52;;;;;;;1.63;1.10;;;21.80;66.80;;;;;;5022719;28;20214;-81
2023/05/20 03:09:19;;;;;;;1.30;1.10;;;21.80;66.80;;;;;;5022101;28;20471;-81
2023/05/20 03:11:46;;;;;;;1.02;0.93;;;21.80;66.90;;;;;;5012135;28;20608;-81
2023/05/20 03:14:13;;;;;;;1.20;1.00;;;21.70;66.70;;;;;;5021829;28;20223;-81
2023/05/20 03:16:40;;;;;;;1.00;0.80;;;21.70;66.70;;;;;;5018471;28;20464;-81
2023/05/20 03:19:07;;;;;;;1.63;1.02;;;21.70;66.80;;;;;;5020716;28;20667;-81
2023/05/20 03:21:34;;;;;;;1.10;0.80;;;21.70;67.00;;;;;;5025964;28;20312;-82
2023/05/20 03:24:02;;;;;;;1.10;0.90;;;21.70;66.80;;;;;;5021849;28;20208;-81
2023/05/20 03:26:29;;;;;;;1.00;0.80;;;21.70;66.80;;;;;;5029286;28;20930;-81
2023/05/20 03:28:56;;;;;;;1.10;1.00;;;21.70;66.80;;;;;;5028503;28;20294;-81
2023/05/20 03:31:22;;;;;;;2.15;0.95;;;21.70;66.90;;;;;;5023034;28;20822;-81
2023/05/20 03:33:49;;;;;;;1.00;0.80;;;21.70;66.90;;;;;;5021877;28;20669;-81
2023/05/20 03:36:16;;;;;;;0.95;0.75;;;21.70;66.80;;;;;;5029926;28;20200;-81
2023/05/20 03:38:43;;;;;;;1.10;0.85;;;21.70;67.00;;;;;;5029976;28;20200;-82
2023/05/20 03:41:11;;;;;;;1.23;0.90;;;21.70;67.00;;;;;;5027194;28;20227;-81
2023/05/20 03:43:38;;;;;;;1.20;0.80;;;21.70;67.10;;;;;;5023591;28;20200;-82
2023/05/20 03:46:04;;;;;;;1.17;0.90;;;21.70;66.80;;;;;;5024627;28;20216;-81
2023/05/20 03:48:31;;;;;;;1.00;0.80;;;21.70;67.00;;;;;;5027643;28;20458;-81
2023/05/20 03:50:58;;;;;;;1.08;0.85;;;21.70;67.00;;;;;;5031125;28;20684;-81
2023/05/20 03:53:25;;;;;;;1.00;0.90;;;21.70;67.00;;;;;;5027444;28;20231;-81
2023/05/20 03:55:51;;;;;;;1.20;0.90;;;21.60;67.00;;;;;;5027699;28;20295;-80
2023/05/20 03:58:21;;;;;;;1.30;0.90;;;21.60;66.90;;;;;;5030333;28;20807;-81
2023/05/20 04:00:48;;;;;;;1.05;0.93;;;21.60;67.00;;;;;;5020615;28;20679;-81
2023/05/20 04:03:15;;;;;;;1.00;0.80;;;21.60;67.00;;;;;;5027109;28;20258;-82
2023/05/20 04:05:42;;;;;;;1.00;0.80;;;21.60;66.90;;;;;;5016838;28;20678;-81
2023/05/20 04:08:08;;;;;;;1.20;1.02;;;21.60;67.00;;;;;;5023918;28;20200;-81
2023/05/20 04:10:35;;;;;;;1.35;0.80;;;21.60;67.00;;;;;;5019855;28;20656;-82
2023/05/20 04:13:02;;;;;;;1.40;1.05;;;21.60;67.10;;;;;;5022059;28;20200;-82
2023/05/20 04:15:30;;;;;;;1.30;1.10;;;21.60;67.10;;;;;;5021173;28;20209;-81
2023/05/20 04:17:57;;;;;;;1.10;0.90;;;21.60;67.00;;;;;;5023011;28;20203;-81
2023/05/20 04:20:24;;;;;;;1.40;1.10;;;21.60;67.00;;;;;;5022409;28;20575;-81
2023/05/20 04:22:51;;;;;;;1.23;0.90;;;21.60;67.00;;;;;;5023073;28;20227;-81
2023/05/20 04:25:18;;;;;;;1.30;0.95;;;21.60;67.10;;;;;;5024350;28;20202;-82
2023/05/20 04:27:44;;;;;;;1.17;1.00;;;21.60;67.10;;;;;;5031350;28;20211;-80
2023/05/20 04:30:12;;;;;;;1.20;0.90;;;21.60;67.00;;;;;;5025591;28;20714;-80
2023/05/20 04:32:41;;;;;;;1.40;0.90;;;21.60;67.10;;;;;;5023704;28;20275;-81
2023/05/20 04:35:10;;;;;;;0.98;0.88;;;21.60;67.10;;;;;;5025772;28;20280;-81
2023/05/20 04:37:37;;;;;;;1.50;0.98;;;21.50;67.10;;;;;;5027487;28;20195;-82
2023/05/20 04:40:05;;;;;;;1.00;0.90;;;21.60;67.30;;;;;;5027597;28;20195;-81
2023/05/20 04:42:32;;;;;;;1.10;0.80;;;21.50;67.00;;;;;;5023268;28;20303;-82
2023/05/20 04:45:00;;;;;;;1.00;0.88;;;21.50;67.10;;;;;;5022212;28;20206;-81
2023/05/20 04:47:27;;;;;;;1.20;0.82;;;21.50;67.10;;;;;;5013202;28;20216;-82
2023/05/20 04:49:56;;;;;;;1.27;0.90;;;21.50;67.10;;;;;;5021478;28;20201;-82
2023/05/20 04:52:23;;;;;;;1.00;0.80;;;21.50;67.10;;;;;;5025706;28;20721;-81
2023/05/20 04:54:50;;;;;;;1.02;0.80;;;21.50;67.10;;;;;;5026290;28;20644;-82
2023/05/20 04:57:27;;;;;;;1.35;1.00;;;21.50;67.20;;;;;;5028232;28;20594;-82
2023/05/20 04:59:57;;;;;;;1.10;0.80;;;21.50;67.10;;;;;;5025023;28;20208;-82
2023/05/20 05:02:32;;;;;;;1.00;0.90;;;21.50;67.10;;;;;;5018406;28;20612;-83
2023/05/20 05:05:00;;;;;;;0.90;0.73;;;21.50;67.10;;;;;;5021123;28;20459;-82
2023/05/20 05:10:12;;;;;;;1.10;0.80;;;21.40;67.20;;;;;;5016152;28;20671;-82
2023/05/20 05:12:41;;;;;;;1.00;0.85;;;21.40;67.10;;;;;;5017475;28;20196;-80
2023/05/20 05:15:09;;;;;;;1.95;1.20;;;21.50;67.20;;;;;;5023922;28;20204;-79
2023/05/20 05:17:39;;;;;;;1.38;0.90;;;21.40;67.00;;;;;;5016224;28;20567;-82
2023/05/20 05:20:09;;;;;;;0.90;0.63;;;21.40;67.00;;;;;;5024503;28;20204;-81
2023/05/20 05:22:38;;;;;;;1.02;0.90;;;21.40;67.10;;;;;;5020206;28;20561;-81
2023/05/20 05:25:05;;;;;;;1.00;0.90;;;21.40;67.20;;;;;;5022265;28;22377;-82
2023/05/20 05:27:32;;;;;;;8.55;1.20;;;21.50;67.40;;;;;;5028086;28;20203;-83
2023/05/20 05:29:59;;;;;;;1.00;0.90;;;21.50;67.40;;;;;;5026448;28;20200;-83
2023/05/20 05:32:26;;;;;;;1.00;0.80;;;21.50;67.40;;;;;;5028066;28;20207;-83
2023/05/20 05:34:52;;;;;;;1.17;0.90;;;21.50;67.40;;;;;;5022939;28;20207;-81
2023/05/20 05:37:21;;;;;;;1.42;1.17;;;21.50;67.40;;;;;;5026108;28;20556;-82
2023/05/20 05:39:48;;;;;;;1.00;0.90;;;21.50;67.50;;;;;;5020603;28;20645;-81
2023/05/20 05:42:14;;;;;;;1.05;0.90;;;21.50;67.50;;;;;;5023551;28;20219;-82
2023/05/20 05:44:41;;;;;;;1.00;0.80;;;21.50;67.50;;;;;;5029189;28;20204;-82
2023/05/20 05:47:08;;;;;;;1.10;0.90;;;21.60;67.60;;;;;;5021745;28;20203;-81
2023/05/20 05:49:34;;;;;;;0.98;0.77;;;21.60;67.60;;;;;;5021931;28;20204;-82
2023/05/20 05:52:01;;;;;;;0.80;0.60;;;21.60;67.60;;;;;;5019868;28;20205;-82
2023/05/20 05:54:29;;;;;;;1.75;0.80;;;21.60;67.60;;;;;;5027193;28;20202;-82
2023/05/20 05:56:56;;;;;;;1.00;0.88;;;21.60;67.60;;;;;;5024550;28;20239;-81
2023/05/20 05:59:23;;;;;;;1.20;1.05;;;21.60;67.60;;;;;;5013210;28;20208;-82
2023/05/20 06:01:50;;;;;;;1.00;0.80;;;21.60;67.70;;;;;;5015780;28;20224;-82
2023/05/20 06:04:16;;;;;;;1.42;1.10;;;21.60;67.60;;;;;;5020445;28;20668;-81
2023/05/20 06:06:43;;;;;;;1.20;0.88;;;21.70;67.80;;;;;;5025157;28;20552;-82
2023/05/20 06:09:10;;;;;;;1.05;0.77;;;21.70;67.70;;;;;;5021806;28;20200;-82
2023/05/20 06:11:41;;;;;;;0.95;0.80;;;21.70;67.60;;;;;;5020233;28;20197;-81
2023/05/20 06:14:07;;;;;;;1.30;1.00;;;21.70;67.80;;;;;;5032140;28;20298;-82
2023/05/20 06:16:34;;;;;;;1.13;0.90;;;21.80;67.80;;;;;;5020956;28;20214;-82
2023/05/20 06:19:01;;;;;;;1.23;0.90;;;21.80;67.90;;;;;;5030897;28;20207;-82
2023/05/20 06:21:27;;;;;;;1.20;1.00;;;21.80;67.80;;;;;;5024730;28;20231;-82
2023/05/20 06:23:54;;;;;;;1.20;0.80;;;21.80;67.90;;;;;;5017678;28;20212;-81
2023/05/20 06:26:21;;;;;;;1.10;0.80;;;21.80;67.80;;;;;;5024785;28;20205;-82
2023/05/20 06:28:50;;;;;;;1.00;0.90;;;21.90;67.90;;;;;;5027736;28;20203;-82
2023/05/20 06:31:17;;;;;;;0.90;0.73;;;21.80;67.70;;;;;;5018150;28;20208;-81
2023/05/20 06:33:43;;;;;;;0.90;0.70;;;21.90;67.90;;;;;;5025236;28;20200;-80
2023/05/20 06:36:10;;;;;;;1.10;0.70;;;21.90;67.90;;;;;;5024943;28;20964;-80
2023/05/20 06:38:37;;;;;;;1.10;0.85;;;21.90;67.80;;;;;;5026202;28;20466;-80
2023/05/20 06:41:04;;;;;;;1.00;0.83;;;21.90;67.90;;;;;;5010013;28;20204;-80
2023/05/20 06:43:30;;;;;;;0.93;0.80;;;21.90;67.80;;;;;;5027133;28;20454;-80
2023/05/20 06:45:58;;;;;;;0.90;0.80;;;21.90;67.80;;;;;;5022735;28;20192;-81
2023/05/20 06:48:25;;;;;;;0.90;0.70;;;22.00;67.90;;;;;;5027658;28;20470;-82
2023/05/20 06:50:52;;;;;;;1.00;0.80;;;22.00;67.90;;;;;;5025282;28;20455;-81
2023/05/20 06:53:18;;;;;;;1.20;1.00;;;22.00;67.90;;;;;;5026777;28;20200;-81
2023/05/20 06:55:45;;;;;;;1.00;0.80;;;22.00;67.90;;;;;;5018482;28;20804;-80
2023/05/20 06:58:11;;;;;;;1.10;1.00;;;22.00;67.90;;;;;;5027328;28;20475;-81
2023/05/20 07:00:38;;;;;;;1.03;0.87;;;22.00;67.80;;;;;;5019754;28;20469;-81
2023/05/20 07:03:06;;;;;;;1.10;0.77;;;22.00;67.80;;;;;;5020559;28;20490;-80
2023/05/20 07:05:33;;;;;;;0.90;0.80;;;22.00;67.80;;;;;;5021882;28;20655;-80
2023/05/20 07:08:00;;;;;;;1.00;0.87;;;22.00;67.80;;;;;;5020967;28;20467;-80
2023/05/20 07:10:26;;;;;;;1.10;0.87;;;22.00;67.80;;;;;;5026427;28;20470;-82
2023/05/20 07:12:53;;;;;;;1.00;0.90;;;22.00;67.80;;;;;;5025944;28;20451;-79
2023/05/20 07:15:20;;;;;;;1.20;0.83;;;22.00;67.70;;;;;;5019601;28;20459;-80
2023/05/20 07:17:47;;;;;;;1.20;0.80;;;22.00;67.80;;;;;;5017105;28;20493;-81
2023/05/20 07:20:15;;;;;;;1.03;0.77;;;22.00;67.70;;;;;;5025158;28;20454;-81
2023/05/20 07:22:42;;;;;;;1.13;0.80;;;22.00;67.70;;;;;;5022973;28;21029;-81
2023/05/20 07:25:10;;;;;;;1.00;0.80;;;22.00;67.60;;;;;;5020883;28;20204;-81
2023/05/20 07:27:36;;;;;;;1.20;0.70;;;22.00;67.70;;;;;;5031469;28;20435;-81
2023/05/20 07:30:04;;;;;;;1.10;0.80;;;22.00;67.60;;;;;;5026661;28;20470;-80
2023/05/20 07:32:31;;;;;;;0.93;0.80;;;22.00;67.60;;;;;;5024568;28;20475;-81
2023/05/20 07:34:58;;;;;;;1.10;0.90;;;22.00;67.60;;;;;;5028283;28;20449;-81
2023/05/20 07:37:26;;;;;;;1.43;0.90;;;22.10;67.70;;;;;;5022050;28;20454;-80
2023/05/20 07:39:53;;;;;;;1.00;0.80;;;22.00;67.60;;;;;;5027491;28;20455;-83
2023/05/20 07:42:19;;;;;;;1.00;0.80;;;22.10;67.80;;;;;;5025056;28;20216;-81
2023/05/20 07:44:46;;;;;;;1.00;0.80;;;22.10;68.50;;;;;;5025411;28;20462;-81
2023/05/20 07:47:13;;;;;;;1.10;0.93;;;22.10;67.80;;;;;;5020624;28;20474;-78
2023/05/20 07:49:40;;;;;;;2.07;0.80;;;22.10;67.90;;;;;;5027848;28;20448;-75
2023/05/20 07:52:07;;;;;;;2.25;0.90;;;22.10;68.60;;;;;;5027575;28;20450;-75
2023/05/20 07:54:37;;;;;;;1.30;0.80;;;22.10;68.90;;;;;;5024812;28;20202;-83
2023/05/20 07:57:04;;;;;;;7.77;1.10;;;22.10;68.70;;;;;;5022659;28;20479;-84
2023/05/20 07:59:30;;;;;;;2.03;1.87;;;22.10;69.00;;;;;;5021622;28;20489;-82
2023/05/20 08:01:58;;;;;;;1.90;1.60;;;22.00;69.10;;;;;;5025863;28;20483;-82
2023/05/20 08:04:25;;;;;;;1.63;1.27;;;22.00;69.10;;;;;;5028710;28;20467;-82
2023/05/20 08:06:53;;;;;;;1.70;1.60;;;22.00;68.90;;;;;;5030583;28;20446;-81
2023/05/20 08:09:22;;;;;;;3.90;2.07;;;22.00;68.90;;;;;;5020774;28;21048;-87
2023/05/20 08:11:50;;;;;;;3.70;1.47;;;22.00;68.90;;;;;;5023551;23;20495;-51
2023/05/20 08:14:17;;;;;;;1.87;1.43;;;22.00;69.00;;;;;;5000771;28;20456;-51
2023/05/20 08:16:44;;;;;;;2.50;1.38;;;22.10;69.10;;;;;;5007082;28;20471;-51
2023/05/20 08:19:10;;;;;;;7.43;1.53;;;22.10;69.20;;;;;;5003408;28;20220;-53
2023/05/20 08:21:38;;;;;;;1.70;1.55;;;22.10;69.20;;;;;;5002332;28;20460;-49
2023/05/20 08:24:05;;;;;;;2.73;0.93;;;22.20;69.20;;;;;;5006437;28;20758;-46
2023/05/20 08:26:32;;;;;;;2.90;1.50;;;22.20;69.30;;;;;;4999049;28;20519;-48
2023/05/20 08:29:00;;;;;;;2.17;1.30;;;22.20;70.20;;;;;;5003678;28;20463;-49
2023/05/20 08:31:26;;;;;;;1.60;1.50;;;22.20;69.40;;;;;;4997675;28;20460;-50
2023/05/20 08:33:53;;;;;;;3.73;1.40;;;22.20;69.30;;;;;;5005201;28;20561;-55
2023/05/20 08:36:20;;;;;;;1.47;1.13;;;22.30;69.50;;;;;;5005729;28;20989;-47
2023/05/20 08:38:46;;;;;;;1.50;1.20;;;22.30;69.50;;;;;;5009498;28;20443;-52
2023/05/20 08:41:13;;;;;;;1.27;1.07;;;22.30;69.50;;;;;;5001951;28;21288;-55
2023/05/20 08:43:40;;;;;;;1.77;1.60;;;22.40;69.50;;;;;;5009699;28;20514;-51
2023/05/20 08:46:10;;;;;;;2.80;1.20;;;22.40;69.40;;;;;;5002168;28;20824;-53
2023/05/20 08:48:37;;;;;;;3.20;1.47;;;22.40;69.30;;;;;;5009270;28;20537;-51
2023/05/20 08:51:05;;;;;;;1.90;1.33;;;22.50;69.40;;;;;;5005574;28;20477;-49
2023/05/20 08:53:32;;;;;;;1.87;1.10;;;22.50;69.40;;;;;;5007537;28;21001;-52
2023/05/20 08:56:01;;;;;;;2.00;1.33;;;22.50;69.20;;;;;;5007089;28;20463;-48
2023/05/20 08:58:28;;;;;;;1.87;1.30;;;22.60;69.30;;;;;;5010518;28;20520;-50
2023/05/20 09:00:55;;;;;;;1.20;1.10;;;22.60;69.30;;;;;;5001395;28;20969;-47
2023/05/20 09:03:24;;;;;;;1.63;1.50;;;22.60;69.20;;;;;;5007808;28;20484;-50
2023/05/20 09:05:51;;;;;;;1.87;1.07;;;22.60;69.20;;;;;;5005525;28;20456;-47
2023/05/20 09:08:18;;;;;;;1.50;1.10;;;22.60;69.10;;;;;;5003824;28;20555;-48
2023/05/20 09:10:45;;;;;;;1.67;1.10;;;22.70;69.10;;;;;;5001723;28;20943;-49
2023/05/20 09:13:11;;;;;;;1.13;1.03;;;22.70;69.20;;;;;;5007838;28;20460;-49
2023/05/20 09:15:39;;;;;;;1.63;1.23;;;22.70;69.20;;;;;;4998144;28;20456;-53
2023/05/20 09:18:07;;;;;;;1.97;1.40;;;22.80;69.20;;;;;;5001206;28;20468;-53
2023/05/20 09:20:37;;;;;;;1.93;1.20;;;22.80;69.20;;;;;;5001904;28;20819;-48
2023/05/20 09:23:05;;;;;;;2.40;1.33;;;22.80;69.20;;;;;;5004563;28;20494;-47
2023/05/20 09:25:33;;;;;;;2.33;1.47;;;22.90;69.10;;;;;;5005617;28;20555;-47
2023/05/20 09:28:00;;;;;;;7.60;2.00;;;22.90;69.20;;;;;;5000483;28;20456;-49
2023/05/20 09:30:27;;;;;;;3.50;1.80;;;22.90;68.40;;;;;;4999307;28;20460;-51
2023/05/20 09:32:54;;;;;;;4.73;1.77;;;22.80;68.60;;;;;;5003893;28;20828;-48
2023/05/20 09:35:22;;;;;;;6.40;1.77;;;22.80;68.30;;;;;;5006919;28;20456;-49
2023/05/20 09:37:52;;;;;;;3.63;1.53;;;22.80;68.10;;;;;;5000109;28;20456;-47
2023/05/20 09:40:23;;;;;;;2.77;1.50;;;22.80;67.90;;;;;;4997942;28;20460;-53
2023/05/20 09:42:53;;;;;;;3.70;2.07;;;22.80;67.80;;;;;;5009979;28;20566;-49
2023/05/20 09:45:20;;;;;;;1.40;1.27;;;22.80;67.80;;;;;;5011451;28;20465;-46
2023/05/20 09:47:48;;;;;;;2.23;1.47;;;22.80;67.60;;;;;;5008511;28;20456;-46
2023/05/20 09:50:15;;;;;;;1.67;1.43;;;22.80;67.70;;;;;;5012816;28;20467;-45
2023/05/20 09:52:44;;;;;;;1.30;1.20;;;22.80;67.60;;;;;;5005601;28;20460;-48
2023/05/20 09:55:12;;;;;;;1.57;1.43;;;22.80;67.20;;;;;;4997828;28;20464;-51
2023/05/20 09:57:39;;;;;;;6.67;1.83;;;22.80;67.10;;;;;;5012623;28;20448;-48
2023/05/20 10:00:07;;;;;;;3.63;1.50;;;22.80;67.80;;;;;;5009487;28;20463;-44
2023/05/20 10:02:35;;;;;;;4.33;1.83;;;22.80;67.20;;;;;;5006167;28;20479;-48
2023/05/20 10:05:05;;;;;;;1.67;1.37;;;22.90;67.10;;;;;;5011486;28;20455;-50
2023/05/20 10:08:03;;;;;;;1.80;1.33;;;22.90;67.10;;;;;;5005678;28;20526;-49
2023/05/20 10:10:38;;;;;;;1.70;1.37;;;22.90;66.90;;;;;;5011504;28;20820;-51
2023/05/20 10:13:18;;;;;;;2.30;1.50;;;22.90;67.00;;;;;;5012780;28;20447;-49
2023/05/20 10:15:55;;;;;;;5.13;1.40;;;22.90;66.90;;;;;;5003957;28;20459;-48
2023/05/20 10:18:36;;;;;;;2.20;1.50;;;22.90;66.80;;;;;;5010034;28;20815;-52
2023/05/20 10:21:03;;;;;;;1.90;1.30;;;22.80;66.70;;;;;;5006152;28;20460;-48
2023/05/20 10:23:31;;;;;;;3.43;1.47;;;22.80;66.70;;;;;;5007642;28;20506;-47
2023/05/20 10:25:59;;;;;;;2.53;1.97;;;22.80;66.70;;;;;;5007901;28;20459;-45
2023/05/20 10:28:30;;;;;;;2.00;1.80;;;22.80;66.50;;;;;;5005909;28;20459;-47
2023/05/20 10:30:57;;;;;;;3.80;2.10;;;22.80;66.60;;;;;;5007242;28;20924;-49
2023/05/20 10:33:25;;;;;;;5.20;1.77;;;22.80;66.60;;;;;;5012925;28;20808;-49
2023/05/20 10:35:52;;;;;;;1.70;1.37;;;22.80;66.70;;;;;;5008199;28;20459;-49
2023/05/20 10:38:19;;;;;;;1.93;1.73;;;22.80;66.50;;;;;;5008769;28;20835;-52
2023/05/20 10:40:46;;;;;;;1.87;1.23;;;22.80;66.40;;;;;;5007469;28;20451;-48
2023/05/20 10:43:15;;;;;;;1.80;1.60;;;22.80;66.40;;;;;;5003051;28;20475;-48
2023/05/20 10:45:49;;;;;;;1.80;1.37;;;22.80;66.40;;;;;;5002026;28;20455;-51
2023/05/20 10:48:26;;;;;;;1.73;1.30;;;22.80;66.40;;;;;;5003949;28;20971;-48
2023/05/20 10:50:56;;;;;;;1.40;1.10;;;22.80;66.40;;;;;;5003073;28;20464;-52
2023/05/20 10:53:24;;;;;;;2.50;1.43;;;22.80;66.30;;;;;;5004312;28;20474;-54
2023/05/20 10:55:53;;;;;;;1.77;1.40;;;22.80;66.40;;;;;;5009851;28;20463;-48
2023/05/20 10:58:22;;;;;;;1.77;1.20;;;22.80;66.60;;;;;;5003243;28;20452;-51
2023/05/20 11:00:49;;;;;;;1.87;1.30;;;22.90;66.80;;;;;;5009713;28;20485;-55
2023/05/20 11:03:17;;;;;;;1.70;1.43;;;22.90;66.90;;;;;;5008200;28;20486;-51
2023/05/20 11:05:46;;;;;;;2.83;1.47;;;22.90;67.00;;;;;;5012264;28;20444;-50
2023/05/20 11:08:13;;;;;;;1.23;1.10;;;23.00;67.10;;;;;;5008888;28;20596;-48
2023/05/20 11:10:41;;;;;;;1.70;1.20;;;23.00;67.20;;;;;;4998943;28;20464;-49
2023/05/20 11:13:08;;;;;;;1.63;1.27;;;23.00;67.30;;;;;;4999949;28;20475;-50
2023/05/20 11:15:37;;;;;;;1.50;1.20;;;23.10;67.50;;;;;;5006503;28;20463;-48
2023/05/20 11:18:04;;;;;;;1.77;1.60;;;23.10;67.50;;;;;;5004617;28;20814;-51
2023/05/20 11:20:33;;;;;;;1.60;1.50;;;23.10;67.70;;;;;;5007466;28;20468;-54
2023/05/20 11:23:02;;;;;;;3.00;1.33;;;23.10;67.60;;;;;;5008716;28;20483;-51
2023/05/20 11:25:29;;;;;;;3.63;1.10;;;23.10;67.70;;;;;;5005524;28;20796;-49
2023/05/20 11:27:56;;;;;;;2.27;1.30;;;23.10;67.60;;;;;;5010117;28;20460;-52
2023/05/20 11:30:23;;;;;;;1.63;1.53;;;23.20;67.80;;;;;;5005783;28;20537;-53
2023/05/20 11:33:01;;;;;;;1.37;1.20;;;23.20;67.90;;;;;;5000227;28;20460;-56
2023/05/20 11:35:30;;;;;;;1.60;1.50;;;23.20;68.00;;;;;;5009629;28;20539;-51
2023/05/20 11:37:58;;;;;;;2.63;1.70;;;23.20;68.10;;;;;;5003443;28;20475;-51
2023/05/20 11:40:26;;;;;;;1.77;1.50;;;23.20;68.10;;;;;;5005963;28;20460;-49
2023/05/20 11:42:54;;;;;;;1.57;1.30;;;23.20;68.10;;;;;;5005003;28;20629;-48
2023/05/20 11:45:21;;;;;;;2.43;1.50;;;23.20;68.10;;;;;;5006360;28;20593;-48
2023/05/20 11:48:00;;;;;;;1.40;1.30;;;23.30;68.20;;;;;;5008304;28;20490;-52
2023/05/20 11:50:27;;;;;;;4.30;1.43;;;23.30;68.10;;;;;;5008850;28;20466;-54
2023/05/20 11:52:58;;;;;;;2.50;1.17;;;23.30;68.10;;;;;;4999191;28;20471;-54
2023/05/20 11:55:25;;;;;;;1.57;1.40;;;23.30;67.30;;;;;;5004443;28;20823;-52
2023/05/20 11:57:52;;;;;;;2.00;1.80;;;23.20;66.80;;;;;;5009156;28;20463;-53
2023/05/20 12:00:19;;;;;;;1.50;1.40;;;23.20;66.50;;;;;;4997044;28;20464;-53
2023/05/20 12:02:46;;;;;;;1.33;1.23;;;23.20;66.70;;;;;;5004019;28;20529;-52
2023/05/20 12:05:15;;;;;;;1.70;1.33;;;23.20;67.00;;;;;;5007088;28;20470;-50
2023/05/20 12:07:41;;;;;;;3.30;1.40;;;23.30;67.90;;;;;;5004423;28;20464;-52
2023/05/20 12:10:09;;;;;;;1.50;1.33;;;23.30;67.20;;;;;;5003263;28;20835;-51
2023/05/20 12:12:36;;;;;;;2.50;1.30;;;23.30;67.20;;;;;;5011575;28;20486;-53
2023/05/20 12:15:04;;;;;;;1.80;1.70;;;23.30;67.10;;;;;;5003907;28;20824;-52
2023/05/20 12:17:31;;;;;;;2.70;1.50;;;23.40;67.30;;;;;;5003495;28;20458;-52
2023/05/20 12:19:58;;;;;;;6.17;1.73;;;23.40;67.30;;;;;;5007471;28;20471;-49
2023/05/20 12:22:26;;;;;;;1.67;1.20;;;23.40;67.40;;;;;;5005846;28;20470;-51
2023/05/20 12:24:52;;;;;;;3.27;1.60;;;23.40;67.30;;;;;;5001516;28;20501;-49
2023/05/20 12:27:19;;;;;;;1.60;1.30;;;23.40;67.50;;;;;;5006814;28;20463;-55
2023/05/20 12:29:49;;;;;;;1.10;1.00;;;23.50;67.50;;;;;;5007500;28;20467;-51
2023/05/20 12:32:15;;;;;;;1.53;1.23;;;23.50;67.50;;;;;;5000151;28;20476;-49
2023/05/20 12:34:42;;;;;;;2.13;1.63;;;23.50;67.50;;;;;;5010100;28;20452;-50
2023/05/20 12:37:09;;;;;;;1.73;1.23;;;23.50;67.40;;;;;;5009835;28;20456;-50
2023/05/20 12:39:37;;;;;;;1.77;1.40;;;23.50;67.50;;;;;;5006754;28;20482;-49
2023/05/20 12:42:03;;;;;;;1.73;1.30;;;23.60;67.60;;;;;;5008197;28;20460;-49
2023/05/20 12:44:30;;;;;;;1.40;1.10;;;23.60;67.70;;;;;;5002489;28;20491;-50
2023/05/20 12:46:57;;;;;;;2.10;1.40;;;23.60;67.60;;;;;;5006243;28;20468;-53
2023/05/20 12:49:23;;;;;;;1.30;1.10;;;23.60;67.70;;;;;;5006882;28;20480;-52
2023/05/20 12:51:50;;;;;;;1.30;1.20;;;23.60;67.70;;;;;;5006155;28;20460;-51
2023/05/20 12:54:18;;;;;;;1.63;1.20;;;23.60;67.70;;;;;;5005528;28;20464;-51